BJ6 weather

Pointed Mountain Airport
Pointed Mountain, Northwest Territories, Canada

Public forecast

Using degrees Celsius for public forecast. Weather courtesy of forecast.io.

Closest aviation weather report (METAR) to Pointed Mountain Airport

Closest report is Fort Liard Airport, 11.7 nm (21.7 km) ESE. Retrieved 2019/10/18 22:00 UTC (51 minutes ago):

CYJF 182200Z 07006KT 6SM -SN BR SCT010 BKN020 OVC042 01/M01 A2946 RMK ST4SC3SC1 S00 AFT 12Z 02/LAST STFD OBS/NXT 211400Z SLP986

Closest aviation forecast (TAF) to Pointed Mountain Airport

Closest forecast is Fort Nelson Airport, 97.1 nm (179.7 km) SSE. Retrieved 2019/10/18 19:42 UTC (3 hours ago):

TAF CYYE 181838Z 1819/1907 VRB03KT P6SM -SN SCT006 OVC025 TEMPO 1819/1903 3SM -SN BR BKN006 OVC015 FM190300 VRB03KT 5SM -SN SCT004 OVC012 TEMPO 1903/1907 2SM -SN BKN004 OVC008 RMK NXT FCST BY 190100Z